Time;durP1;ratioP1;P1;durP2;ratioP2;P2;SDS_P1;SDS_P2;PMS_P1;PMS_P2;Temp;Humidity;BMP_temperature;BMP_pressure;BME280_temperature;BME280_humidity;BME280_pressure;Samples;Min_cycle;Max_cycle;Signal;HPM_P1;HPM_P2
2023/09/21 00:00:19;;;;;;;0.20;0.20;;;;;;;;;;4930880;28;20427;-75
2023/09/21 00:02:54;;;;;;;0.13;0.13;;;19.20;87.90;;;;;;4931502;28;20036;-75
2023/09/21 00:05:24;;;;;;;0.30;0.30;;;;;;;;;;4918576;28;20412;-75
2023/09/21 00:07:50;;;;;;;2.63;0.43;;;;;;;;;;4930216;28;20036;-75
2023/09/21 00:10:17;;;;;;;0.63;0.20;;;19.10;89.20;;;;;;4925714;28;20031;-75
2023/09/21 00:12:43;;;;;;;0.20;0.20;;;;;;;;;;4927243;28;20610;-75
2023/09/21 00:15:12;;;;;;;2.38;0.30;;;;;;;;;;4930633;28;20032;-75
2023/09/21 00:17:39;;;;;;;0.30;0.20;;;;;;;;;;4930612;28;20496;-75
2023/09/21 00:20:23;;;;;;;0.10;0.10;;;19.20;97.40;;;;;;4930702;28;20108;-75
2023/09/21 00:22:49;;;;;;;0.15;0.15;;;;;;;;;;4931214;28;20040;-75
2023/09/21 00:25:17;;;;;;;0.20;0.20;;;19.00;96.50;;;;;;4930818;28;20457;-75
2023/09/21 00:27:44;;;;;;;0.13;0.13;;;;;;;;;;4929682;28;20035;-75
2023/09/21 00:30:10;;;;;;;0.20;0.20;;;19.00;90.40;;;;;;4930571;28;20162;-75
2023/09/21 00:32:40;;;;;;;0.10;0.10;;;18.90;91.30;;;;;;4931716;28;20119;-75
2023/09/21 00:35:09;;;;;;;0.15;0.15;;;;;;;;;;4930137;28;20056;-74
2023/09/21 00:37:35;;;;;;;2.28;0.20;;;;;;;;;;4930659;28;20046;-75
2023/09/21 00:40:13;;;;;;;0.20;0.20;;;;;;;;;;4930984;28;20031;-74
2023/09/21 00:42:39;;;;;;;0.28;0.28;;;;;;;;;;4930702;28;20363;-75
2023/09/21 00:45:08;;;;;;;0.80;0.20;;;;;;;;;;4930075;28;20028;-74
2023/09/21 00:47:34;;;;;;;0.10;0.10;;;;;;;;;;4930678;28;20023;-75
2023/09/21 00:50:06;;;;;;;0.22;0.22;;;;;;;;;;4930116;28;20036;-75
2023/09/21 00:52:32;;;;;;;3.13;0.40;;;;;;;;;;4930632;28;20117;-74
2023/09/21 00:54:58;;;;;;;3.90;0.47;;;;;;;;;;4931497;28;20518;-74
2023/09/21 00:57:25;;;;;;;0.40;0.20;;;;;;;;;;4930555;28;20039;-75
2023/09/21 00:59:52;;;;;;;1.13;0.30;;;;;;;;;;4950412;28;20115;-75
2023/09/21 01:02:19;;;;;;;0.45;0.30;;;;;;;;;;4925794;28;20032;-75
2023/09/21 01:04:46;;;;;;;0.50;0.30;;;;;;;;;;4926379;28;20066;-75
2023/09/21 01:07:17;;;;;;;0.13;0.13;;;18.60;99.70;;;;;;4930302;28;20036;-75
2023/09/21 01:09:45;;;;;;;0.30;0.30;;;18.50;94.10;;;;;;4928118;28;20527;-75
2023/09/21 01:12:13;;;;;;;0.45;0.28;;;18.50;93.80;;;;;;4929955;28;20070;-75
2023/09/21 01:14:39;;;;;;;0.13;0.13;;;;;;;;;;4930001;28;20036;-75
2023/09/21 01:17:05;;;;;;;0.15;0.15;;;;;;;;;;4930172;28;20035;-74
2023/09/21 01:19:31;;;;;;;0.63;0.30;;;18.30;99.90;;;;;;4930092;28;20028;-74
2023/09/21 01:22:03;;;;;;;0.20;0.20;;;18.00;99.90;;;;;;4991346;28;20029;-75
2023/09/21 01:24:29;;;;;;;0.95;0.35;;;;;;;;;;4938085;28;20813;-75
2023/09/21 01:26:55;;;;;;;0.40;0.25;;;;;;;;;;4933165;28;20382;-75
2023/09/21 01:29:21;;;;;;;5.53;0.20;;;;;;;;;;4928631;28;20078;-74
2023/09/21 01:31:48;;;;;;;0.25;0.22;;;18.40;99.90;;;;;;4930259;28;20032;-75
2023/09/21 01:34:14;;;;;;;;;;;18.20;95.90;;;;;;4930508;28;20071;-75
2023/09/21 01:36:43;;;;;;;0.38;0.32;;;18.10;95.60;;;;;;4930253;28;19915;-75
2023/09/21 01:39:09;;;;;;;0.20;0.20;;;;;;;;;;4929730;28;20440;-74
2023/09/21 01:41:35;;;;;;;0.10;0.10;;;;;;;;;;4929824;28;20044;-75
2023/09/21 01:44:01;;;;;;;4.47;0.35;;;;;;;;;;4929742;28;20070;-74
2023/09/21 01:46:28;;;;;;;3.55;0.43;;;;;;;;;;4927923;28;20023;-75
2023/09/21 01:48:54;;;;;;;1.00;0.60;;;;;;;;;;4922826;28;20074;-75
2023/09/21 01:51:20;;;;;;;0.32;0.30;;;;;;;;;;4927244;28;20039;-75
2023/09/21 01:53:47;;;;;;;0.20;0.20;;;;;;;;;;4929574;28;20032;-75
2023/09/21 01:56:14;;;;;;;0.57;0.22;;;;;;;;;;4928560;28;20268;-75
2023/09/21 01:58:40;;;;;;;0.45;0.30;;;;;;;;;;4929512;28;20039;-75
2023/09/21 02:01:06;;;;;;;0.55;0.30;;;;;;;;;;4929042;28;20548;-74
2023/09/21 02:03:32;;;;;;;1.55;0.20;;;;;;;;;;4929668;28;20125;-75
2023/09/21 02:06:02;;;;;;;0.20;0.20;;;17.60;99.90;;;;;;4928452;28;20826;-74
2023/09/21 02:08:28;;;;;;;2.78;0.28;;;;;;;;;;4929313;28;20038;-74
2023/09/21 02:10:55;;;;;;;0.25;0.20;;;17.80;97.80;;;;;;4928911;28;20032;-75
2023/09/21 02:13:21;;;;;;;0.45;0.32;;;;;;;;;;4929333;28;20040;-74
2023/09/21 02:15:51;;;;;;;0.55;0.20;;;;;;;;;;4929011;28;20035;-75
2023/09/21 02:18:17;;;;;;;0.20;0.20;;;;;;;;;;4931089;28;20059;-75
2023/09/21 02:20:46;;;;;;;0.22;0.22;;;;;;;;;;4928950;28;20110;-75
2023/09/21 02:23:12;;;;;;;0.30;0.30;;;;;;;;;;4928124;28;20027;-75
2023/09/21 02:25:39;;;;;;;0.10;0.10;;;;;;;;;;4929285;28;20031;-75
2023/09/21 02:28:09;;;;;;;0.30;0.30;;;;;;;;;;4929018;28;20058;-75
2023/09/21 02:30:37;;;;;;;0.43;0.30;;;17.50;98.80;;;;;;4929702;28;20036;-75
2023/09/21 02:33:04;;;;;;;;;;;17.50;99.10;;;;;;4929370;28;20067;-74
2023/09/21 02:35:33;;;;;;;1.45;0.45;;;;;;;;;;4928785;28;19991;-75
2023/09/21 02:37:59;;;;;;;0.25;0.25;;;;;;;;;;4928987;28;20036;-75
2023/09/21 02:40:25;;;;;;;0.40;0.20;;;;;;;;;;4927175;28;20077;-75
2023/09/21 02:42:53;;;;;;;0.20;0.20;;;17.30;99.90;;;;;;4924815;28;20028;-74
2023/09/21 02:45:21;;;;;;;0.47;0.30;;;;;;;;;;4923360;28;20040;-74
2023/09/21 02:47:47;;;;;;;0.30;0.30;;;17.30;99.90;;;;;;4928836;28;20043;-75
2023/09/21 02:50:14;;;;;;;0.90;0.70;;;17.20;99.90;;;;;;4928513;28;20059;-75
2023/09/21 02:52:56;;;;;;;1.40;0.40;;;17.10;99.90;;;;;;4928746;28;20052;-74
2023/09/21 02:55:26;;;;;;;0.52;0.20;;;17.00;99.90;;;;;;4925526;28;20030;-74
2023/09/21 02:58:00;;;;;;;0.20;0.20;;;;;;;;;;4928539;28;20051;-75
2023/09/21 03:00:27;;;;;;;0.93;0.20;;;;;;;;;;4928356;28;20020;-75
2023/09/21 03:02:55;;;;;;;0.10;0.10;;;16.90;99.90;;;;;;4974830;28;20033;-75
2023/09/21 03:05:21;;;;;;;0.15;0.15;;;;;;;;;;4937532;28;20380;-74
2023/09/21 03:07:48;;;;;;;0.40;0.40;;;;;;;;;;4928590;28;20020;-74
2023/09/21 03:10:16;;;;;;;0.30;0.30;;;17.00;99.90;;;;;;4928231;28;20028;-74
2023/09/21 03:12:42;;;;;;;0.20;0.20;;;;;;;;;;4928534;28;20044;-75
2023/09/21 03:15:15;;;;;;;0.55;0.47;;;16.80;99.90;;;;;;4928541;28;20028;-75
2023/09/21 03:17:42;;;;;;;0.20;0.20;;;;;;;;;;4936561;28;20042;-74
2023/09/21 03:20:28;;;;;;;0.20;0.20;;;16.80;99.90;;;;;;4928146;28;20115;-74
2023/09/21 03:22:55;;;;;;;0.52;0.30;;;16.80;99.90;;;;;;4927981;28;20035;-75
2023/09/21 03:25:29;;;;;;;0.10;0.10;;;;;;;;;;4941975;28;20664;-74
2023/09/21 03:27:56;;;;;;;0.20;0.20;;;17.00;99.90;;;;;;4928312;28;20793;-75
2023/09/21 03:30:26;;;;;;;0.77;0.40;;;17.00;99.90;;;;;;4928680;28;20722;-75
2023/09/21 03:32:52;;;;;;;0.22;0.22;;;;;;;;;;4929317;28;20044;-75
2023/09/21 03:35:18;;;;;;;2.38;0.40;;;;;;;;;;4931312;28;20044;-75
2023/09/21 03:37:51;;;;;;;0.40;0.30;;;;;;;;;;4930989;28;20459;-75
2023/09/21 03:40:20;;;;;;;0.20;0.10;;;;;;;;;;4927164;28;20059;-75
2023/09/21 03:42:45;;;;;;;0.50;0.40;;;;;;;;;;4931047;28;20032;-74
2023/09/21 03:45:16;;;;;;;0.35;0.30;;;16.90;99.90;;;;;;4931420;28;20053;-75
2023/09/21 03:47:42;;;;;;;0.20;0.20;;;;;;;;;;4926983;28;20067;-75
2023/09/21 03:50:12;;;;;;;2.10;0.30;;;16.70;99.90;;;;;;4923636;28;20393;-74
2023/09/21 03:52:39;;;;;;;0.20;0.20;;;16.60;99.90;;;;;;4982905;28;20044;-75
2023/09/21 03:55:07;;;;;;;0.38;0.38;;;;;;;;;;4930889;28;20039;-74
2023/09/21 03:57:33;;;;;;;0.28;0.20;;;;;;;;;;4930504;28;20035;-74
2023/09/21 03:59:59;;;;;;;4.60;0.32;;;;;;;;;;4931208;28;20036;-75
2023/09/21 04:02:25;;;;;;;0.20;0.20;;;;;;;;;;4931284;28;20062;-74
2023/09/21 04:04:52;;;;;;;0.30;0.30;;;16.30;99.90;;;;;;4930856;28;20051;-75
2023/09/21 04:07:19;;;;;;;0.50;0.30;;;;;;;;;;4930893;28;20038;-74
2023/09/21 04:09:46;;;;;;;0.40;0.35;;;;;;;;;;4930691;28;20035;-75
2023/09/21 04:12:12;;;;;;;0.28;0.28;;;;;;;;;;4931424;28;20503;-75
2023/09/21 04:14:38;;;;;;;0.70;0.40;;;;;;;;;;4931088;28;20035;-75
2023/09/21 04:17:04;;;;;;;0.40;0.30;;;;;;;;;;4931055;28;20042;-75
2023/09/21 04:19:30;;;;;;;0.25;0.25;;;;;;;;;;4930732;28;20082;-75
2023/09/21 04:21:56;;;;;;;0.20;0.20;;;;;;;;;;4930417;28;20481;-75
2023/09/21 04:24:23;;;;;;;2.45;0.50;;;;;;;;;;4930303;28;20030;-75
2023/09/21 04:26:49;;;;;;;0.20;0.20;;;;;;;;;;4930437;28;20451;-75
2023/09/21 04:29:15;;;;;;;0.28;0.20;;;;;;;;;;4930798;28;20032;-74
2023/09/21 04:31:42;;;;;;;0.20;0.20;;;;;;;;;;4930614;28;20096;-75
2023/09/21 04:34:08;;;;;;;0.52;0.50;;;;;;;;;;4930452;28;20062;-75
2023/09/21 04:36:34;;;;;;;3.58;0.28;;;;;;;;;;4930508;28;20039;-75
2023/09/21 04:39:00;;;;;;;0.55;0.40;;;;;;;;;;4931028;28;20031;-75
2023/09/21 04:41:27;;;;;;;0.47;0.47;;;;;;;;;;4930606;28;20019;-75
2023/09/21 04:43:54;;;;;;;0.17;0.17;;;16.00;99.90;;;;;;4929888;28;20582;-75
2023/09/21 04:46:20;;;;;;;0.65;0.50;;;;;;;;;;4930513;28;20047;-75
2023/09/21 04:48:46;;;;;;;3.60;0.30;;;;;;;;;;4930821;28;20028;-75
2023/09/21 04:51:16;;;;;;;0.30;0.30;;;16.20;99.90;;;;;;4930402;28;20030;-74
2023/09/21 04:53:42;;;;;;;0.50;0.30;;;;;;;;;;4930405;28;20089;-74
2023/09/21 04:56:08;;;;;;;0.28;0.28;;;16.20;99.90;;;;;;4929377;28;20020;-74
2023/09/21 04:58:34;;;;;;;1.35;0.38;;;;;;;;;;4930176;28;20039;-75
2023/09/21 05:01:09;;;;;;;0.50;0.40;;;;;;;;;;4930319;28;20039;-74
2023/09/21 05:03:36;;;;;;;0.65;0.40;;;;;;;;;;4929095;28;20055;-77
2023/09/21 05:06:02;;;;;;;0.27;0.27;;;;;;;;;;4925106;28;20114;-74
2023/09/21 05:08:29;;;;;;;0.50;0.40;;;;;;;;;;4922762;28;20037;-74
2023/09/21 05:10:55;;;;;;;0.38;0.38;;;;;;;;;;4919966;28;20034;-74
2023/09/21 05:13:21;;;;;;;0.40;0.40;;;;;;;;;;4930020;28;20028;-74
2023/09/21 05:15:48;;;;;;;1.00;0.63;;;;;;;;;;4930210;28;20116;-74
2023/09/21 05:18:16;;;;;;;0.47;0.47;;;;;;;;;;4930277;28;20110;-75
2023/09/21 05:20:44;;;;;;;5.35;0.32;;;;;;;;;;4940468;28;20427;-76
2023/09/21 05:23:11;;;;;;;0.22;0.22;;;;;;;;;;4922686;28;20040;-76
2023/09/21 05:25:36;;;;;;;0.38;0.38;;;;;;;;;;4920583;28;20036;-76
2023/09/21 05:28:03;;;;;;;0.63;0.30;;;;;;;;;;4918299;28;20058;-75
2023/09/21 05:30:30;;;;;;;1.25;0.30;;;;;;;;;;4917679;28;20035;-76
2023/09/21 05:32:57;;;;;;;0.35;0.30;;;;;;;;;;4920817;28;20023;-76
2023/09/21 05:35:23;;;;;;;2.75;0.60;;;16.30;99.90;;;;;;4925082;28;20052;-77
2023/09/21 05:37:50;;;;;;;0.30;0.30;;;;;;;;;;4921922;28;20406;-79
2023/09/21 05:40:16;;;;;;;0.82;0.22;;;;;;;;;;4915485;28;20036;-76
2023/09/21 05:42:44;;;;;;;0.55;0.43;;;;;;;;;;4917387;28;20059;-77
2023/09/21 05:45:10;;;;;;;0.60;0.50;;;;;;;;;;4927074;28;20113;-76
2023/09/21 05:47:37;;;;;;;1.48;0.40;;;;;;;;;;4918656;28;20034;-76
2023/09/21 05:50:05;;;;;;;0.43;0.43;;;;;;;;;;4928213;28;20032;-82
2023/09/21 05:52:34;;;;;;;2.47;0.60;;;;;;;;;;4924618;28;20433;-78
2023/09/21 05:55:00;;;;;;;5.38;0.50;;;;;;;;;;4917264;28;20140;-78
2023/09/21 05:57:27;;;;;;;0.55;0.40;;;;;;;;;;4920892;28;20028;-78
2023/09/21 05:59:54;;;;;;;1.73;0.50;;;;;;;;;;4982672;28;20132;-79
2023/09/21 06:02:20;;;;;;;1.65;0.70;;;;;;;;;;4929255;28;20051;-77
2023/09/21 06:04:46;;;;;;;0.32;0.30;;;;;;;;;;4928580;28;20044;-81
2023/09/21 06:07:12;;;;;;;0.40;0.40;;;16.80;99.90;;;;;;4928497;28;20023;-80
2023/09/21 06:09:39;;;;;;;0.40;0.40;;;16.90;99.90;;;;;;4927533;29;20028;-80
2023/09/21 06:12:07;;;;;;;1.00;0.55;;;16.60;99.90;;;;;;4926826;28;20097;-81
2023/09/21 06:14:34;;;;;;;1.35;0.57;;;16.80;99.90;;;;;;4922190;28;20043;-80
2023/09/21 06:17:00;;;;;;;1.27;0.55;;;17.00;99.90;;;;;;4929197;28;20554;-80
2023/09/21 06:19:26;;;;;;;1.70;0.50;;;;;;;;;;4928609;28;20115;-81
2023/09/21 06:21:57;;;;;;;0.30;0.30;;;;;;;;;;4919917;28;20090;-80
2023/09/21 06:24:24;;;;;;;6.85;0.68;;;;;;;;;;4927753;28;20063;-82
2023/09/21 06:26:52;;;;;;;0.38;0.30;;;;;;;;;;4928903;28;20512;-83
2023/09/21 06:29:19;;;;;;;0.55;0.55;;;;;;;;;;4929113;28;20032;-83
2023/09/21 06:31:48;;;;;;;1.50;0.55;;;;;;;;;;4928262;28;20019;-83
2023/09/21 06:34:18;;;;;;;1.95;0.88;;;;;;;;;;4925798;28;20520;-83
2023/09/21 06:36:44;;;;;;;0.70;0.50;;;;;;;;;;4923985;28;20040;-87
2023/09/21 06:39:11;;;;;;;0.77;0.50;;;;;;;;;;4925375;28;20047;-86
2023/09/21 06:41:39;;;;;;;0.35;0.35;;;;;;;;;;4928690;28;20044;-83
2023/09/21 06:44:05;;;;;;;1.20;0.60;;;;;;;;;;4928728;28;20893;-84
2023/09/21 06:46:32;;;;;;;0.20;0.20;;;;;;;;;;4929018;28;20019;-84
2023/09/21 06:49:01;;;;;;;0.43;0.43;;;;;;;;;;4929115;28;20717;-85
2023/09/21 06:51:27;;;;;;;1.15;0.50;;;;;;;;;;5001272;28;20031;-87
2023/09/21 06:53:53;;;;;;;1.55;0.57;;;;;;;;;;4941823;28;20020;-83
2023/09/21 06:56:21;;;;;;;1.75;0.90;;;;;;;;;;4928274;28;20753;-86
2023/09/21 06:58:47;;;;;;;0.43;0.43;;;;;;;;;;4949400;28;20052;-83
2023/09/21 07:01:13;;;;;;;2.15;0.55;;;;;;;;;;4931926;28;20492;-85
2023/09/21 07:03:40;;;;;;;0.93;0.40;;;;;;;;;;4919387;28;20048;-80
2023/09/21 07:06:06;;;;;;;0.87;0.60;;;;;;;;;;4957668;28;20114;-80
2023/09/21 07:08:32;;;;;;;5.65;0.65;;;;;;;;;;4916689;28;20032;-79
2023/09/21 07:10:58;;;;;;;8.50;0.77;;;;;;;;;;4927208;28;20024;-78
2023/09/21 07:13:24;;;;;;;3.83;0.75;;;;;;;;;;4917650;28;20063;-78
2023/09/21 07:15:51;;;;;;;2.10;0.75;;;;;;;;;;4912767;28;20102;-78
2023/09/21 07:18:18;;;;;;;5.07;0.90;;;;;;;;;;4925090;28;20048;-81
2023/09/21 07:20:44;;;;;;;3.67;0.63;;;;;;;;;;4925054;28;20031;-84
2023/09/21 07:23:10;;;;;;;4.43;0.85;;;;;;;;;;4923532;28;20521;-83
2023/09/21 07:25:37;;;;;;;2.15;0.68;;;;;;;;;;4917810;28;20028;-84
2023/09/21 07:28:03;;;;;;;1.27;0.50;;;;;;;;;;4916312;28;20447;-83
2023/09/21 07:30:32;;;;;;;1.75;0.52;;;;;;;;;;4919677;28;20028;-83
2023/09/21 07:32:58;;;;;;;2.17;0.60;;;;;;;;;;4920343;28;20070;-84
2023/09/21 07:35:24;;;;;;;1.48;0.50;;;;;;;;;;4917702;28;20513;-83
2023/09/21 07:37:51;;;;;;;3.03;0.65;;;20.80;92.10;;;;;;4925108;28;20043;-82
2023/09/21 07:40:17;;;;;;;7.90;0.88;;;21.10;90.70;;;;;;4921604;28;20086;-83
2023/09/21 07:42:45;;;;;;;0.47;0.45;;;;;;;;;;4912725;28;20088;-83
2023/09/21 07:45:11;;;;;;;4.78;0.73;;;;;;;;;;4970354;28;20024;-83
2023/09/21 07:47:38;;;;;;;0.80;0.50;;;21.80;83.60;;;;;;4926654;28;20723;-82
2023/09/21 07:50:04;;;;;;;1.33;0.38;;;22.00;82.00;;;;;;4920965;28;20024;-83
2023/09/21 07:52:30;;;;;;;0.57;0.57;;;;;;;;;;4927435;28;20054;-82
2023/09/21 07:54:56;;;;;;;0.22;0.20;;;;;;;;;;4927567;28;20374;-82
2023/09/21 07:57:23;;;;;;;0.25;0.25;;;;;;;;;;4926550;28;20115;-80
2023/09/21 07:59:49;;;;;;;1.20;0.32;;;;;;;;;;4927557;28;20032;-81
2023/09/21 08:02:16;;;;;;;0.43;0.40;;;;;;;;;;4928207;28;20122;-81
2023/09/21 08:04:42;;;;;;;;;;;26.20;65.40;;;;;;4914645;28;20051;-82
2023/09/21 08:07:08;;;;;;;3.73;1.27;;;;;;;;;;4984708;28;20657;-82
2023/09/21 08:09:34;;;;;;;2.42;0.47;;;;;;;;;;4924594;28;20028;-82
2023/09/21 08:12:00;;;;;;;1.60;0.80;;;;;;;;;;4927028;28;20102;-83
2023/09/21 08:14:26;;;;;;;3.92;1.55;;;;;;;;;;4927316;28;20481;-81
2023/09/21 08:16:58;;;;;;;3.40;0.88;;;;;;;;;;4927819;28;20032;-83
2023/09/21 08:19:24;;;;;;;2.55;1.15;;;;;;;;;;4927089;28;20111;-83
2023/09/21 08:21:50;;;;;;;7.25;1.70;;;;;;;;;;4921573;28;20119;-83
2023/09/21 08:24:16;;;;;;;4.97;1.10;;;;;;;;;;4924770;28;20051;-82
2023/09/21 08:26:42;;;;;;;3.65;1.30;;;;;;;;;;4930642;28;20115;-82
2023/09/21 08:29:08;;;;;;;4.47;0.60;;;;;;;;;;4930475;28;20059;-83
2023/09/21 08:31:34;;;;;;;2.58;0.70;;;;;;;;;;4930994;28;20027;-77
2023/09/21 08:34:00;;;;;;;2.70;0.83;;;;;;;;;;4921164;28;20036;-77
2023/09/21 08:36:26;;;;;;;4.27;1.17;;;36.30;44.10;;;;;;4922306;28;20022;-76
2023/09/21 08:38:53;;;;;;;2.17;0.63;;;38.20;36.20;;;;;;4918675;28;20044;-76
2023/09/21 08:41:19;;;;;;;1.25;0.25;;;;;;;;;;4914130;28;20476;-77
2023/09/21 08:43:45;;;;;;;1.05;0.63;;;;;;;;;;4924233;28;20159;-77
2023/09/21 08:46:12;;;;;;;4.15;0.30;;;43.10;31.90;;;;;;4929923;28;20416;-77
2023/09/21 08:48:39;;;;;;;0.20;0.10;;;44.20;29.30;;;;;;4929020;28;20568;-77
2023/09/21 08:51:11;;;;;;;0.15;0.10;;;41.20;30.80;;;;;;4929257;28;20492;-77
2023/09/21 08:53:37;;;;;;;0.20;0.00;;;;;;;;;;4929416;28;20027;-77
2023/09/21 08:56:04;;;;;;;0.20;0.10;;;37.50;32.70;;;;;;4928058;28;20059;-77
2023/09/21 08:58:37;;;;;;;0.47;0.10;;;36.60;34.60;;;;;;4929342;28;20036;-77
2023/09/21 09:01:03;;;;;;;0.50;0.30;;;;;;;;;;4925551;28;20393;-77
2023/09/21 09:03:30;;;;;;;1.00;0.25;;;42.60;30.00;;;;;;4923154;28;20043;-77
2023/09/21 09:05:58;;;;;;;1.35;0.20;;;;;;;;;;4969163;28;20043;-77
2023/09/21 09:08:25;;;;;;;0.20;0.10;;;;;;;;;;4925647;28;20040;-77
2023/09/21 09:10:53;;;;;;;0.85;0.20;;;;;;;;;;4919445;28;20067;-85
2023/09/21 09:13:19;;;;;;;1.23;0.75;;;;;;;;;;4919126;28;20035;-83
2023/09/21 09:15:45;;;;;;;;;;;43.00;26.80;;;;;;4928142;28;20111;-83
2023/09/21 09:18:11;;;;;;;0.10;0.10;;;;;;;;;;4925178;28;20576;-82
2023/09/21 09:20:37;;;;;;;;;;;38.80;29.70;;;;;;4936721;28;20028;-83
2023/09/21 09:23:10;;;;;;;0.20;0.20;;;39.50;29.70;;;;;;4947224;28;20012;-82
2023/09/21 09:25:37;;;;;;;1.67;0.30;;;;;;;;;;4969689;28;20016;-84
2023/09/21 09:28:04;;;;;;;0.40;0.20;;;;;;;;;;4929855;28;20115;-84
2023/09/21 09:30:30;;;;;;;0.80;0.30;;;;;;;;;;4932367;28;20118;-83
2023/09/21 09:32:56;;;;;;;5.47;0.28;;;;;;;;;;4929160;28;20024;-83
2023/09/21 09:35:25;;;;;;;0.38;0.20;;;37.90;29.90;;;;;;4929462;28;20059;-82
2023/09/21 09:37:53;;;;;;;1.27;0.65;;;;;;;;;;4929767;28;20082;-82
2023/09/21 09:40:23;;;;;;;2.50;0.30;;;;;;;;;;4922080;28;20036;-79
2023/09/21 09:42:51;;;;;;;0.17;0.10;;;34.20;35.70;;;;;;4917792;28;20040;-79
2023/09/21 09:45:26;;;;;;;1.70;0.52;;;;;;;;;;4925028;28;20051;-81
2023/09/21 09:47:56;;;;;;;1.05;0.40;;;32.40;36.00;;;;;;4922353;28;20052;-81
2023/09/21 09:50:26;;;;;;;1.08;0.40;;;31.10;37.70;;;;;;4921680;28;20533;-79
2023/09/21 09:53:11;;;;;;;2.47;0.40;;;;;;;;;;4939828;28;20027;-79
2023/09/21 09:55:42;;;;;;;1.77;0.57;;;;;;;;;;4919916;28;20023;-79
2023/09/21 09:58:09;;;;;;;0.32;0.17;;;28.60;42.60;;;;;;4929229;28;20082;-79
2023/09/21 10:00:35;;;;;;;1.08;0.40;;;;;;;;;;4928818;28;20042;-79
2023/09/21 10:03:03;;;;;;;1.65;0.32;;;28.10;43.90;;;;;;4928974;28;20036;-83
2023/09/21 10:05:30;;;;;;;0.90;0.65;;;27.60;44.80;;;;;;4928906;28;20038;-83
2023/09/21 10:08:01;;;;;;;2.55;0.77;;;27.60;45.40;;;;;;4923838;28;20031;-79
2023/09/21 10:10:38;;;;;;;1.17;0.60;;;28.60;44.50;;;;;;4914468;28;20032;-78
2023/09/21 10:13:05;;;;;;;4.18;0.75;;;;;;;;;;4922621;28;20035;-78
2023/09/21 10:15:33;;;;;;;0.70;0.40;;;;;;;;;;4929008;28;20063;-78
2023/09/21 10:18:00;;;;;;;2.20;0.70;;;32.20;38.90;;;;;;4926503;28;20119;-78
2023/09/21 10:20:32;;;;;;;0.30;0.20;;;32.20;49.90;;;;;;4927937;28;20016;-78
2023/09/21 10:23:01;;;;;;;1.35;0.40;;;32.00;50.20;;;;;;4928319;28;20059;-78
2023/09/21 10:25:47;;;;;;;2.30;0.40;;;31.70;38.70;;;;;;4927806;28;20031;-78
2023/09/21 10:28:35;;;;;;;1.95;0.43;;;30.80;39.80;;;;;;4927554;28;20557;-77
2023/09/21 10:31:06;;;;;;;2.40;0.47;;;30.10;40.90;;;;;;4916804;28;20040;-78
2023/09/21 10:33:52;;;;;;;0.77;0.50;;;29.60;41.80;;;;;;4919402;28;20035;-78
2023/09/21 10:36:28;;;;;;;1.27;0.75;;;29.40;43.50;;;;;;4928880;28;20052;-84
2023/09/21 10:39:06;;;;;;;2.78;0.50;;;28.80;46.80;;;;;;4915902;28;20067;-81
2023/09/21 10:41:33;;;;;;;3.15;0.80;;;28.30;48.70;;;;;;4922841;28;20020;-82
2023/09/21 10:44:06;;;;;;;0.60;0.45;;;;;;;;;;4914542;28;21179;-79
2023/09/21 10:46:34;;;;;;;1.45;0.47;;;27.80;45.00;;;;;;4917689;28;20115;-80
2023/09/21 10:49:09;;;;;;;3.63;0.70;;;27.40;46.40;;;;;;4918756;28;20024;-79
2023/09/21 10:51:39;;;;;;;0.52;0.30;;;26.80;46.20;;;;;;4916328;28;20039;-79
2023/09/21 10:54:10;;;;;;;1.35;0.68;;;26.40;47.20;;;;;;4924113;28;20093;-78
2023/09/21 10:56:37;;;;;;;1.35;1.00;;;26.20;47.90;;;;;;4916476;28;20040;-79
2023/09/21 10:59:03;;;;;;;1.88;0.75;;;;;;;;;;4922853;28;20119;-78
2023/09/21 11:01:30;;;;;;;0.90;0.60;;;26.00;48.90;;;;;;4918221;28;20107;-78
2023/09/21 11:03:58;;;;;;;0.70;0.50;;;;;;;;;;4920397;28;20039;-79
2023/09/21 11:06:25;;;;;;;5.72;1.35;;;;;;;;;;4912673;28;20263;-79
2023/09/21 11:08:52;;;;;;;1.05;0.90;;;25.40;64.00;;;;;;4913747;28;20040;-79
2023/09/21 11:11:21;;;;;;;1.30;0.75;;;25.30;50.10;;;;;;4922830;28;20027;-79
2023/09/21 11:13:54;;;;;;;4.97;1.23;;;25.30;51.20;;;;;;4921468;28;20028;-79
2023/09/21 11:16:21;;;;;;;2.90;0.80;;;25.20;50.80;;;;;;4917919;28;20034;-79
2023/09/21 11:18:51;;;;;;;;;;;25.20;50.70;;;;;;4917098;28;20028;-78
2023/09/21 11:21:17;;;;;;;4.72;1.17;;;;;;;;;;4916162;28;19957;-79
2023/09/21 11:23:44;;;;;;;1.40;1.08;;;;;;;;;;4917399;28;20414;-78
2023/09/21 11:26:14;;;;;;;1.00;0.90;;;;;;;;;;4921222;28;20039;-79
2023/09/21 11:28:41;;;;;;;1.70;1.08;;;25.40;50.90;;;;;;4928044;28;21659;-79
2023/09/21 11:31:08;;;;;;;1.70;0.85;;;;;;;;;;4925339;28;20817;-79
2023/09/21 11:33:36;;;;;;;2.70;1.67;;;25.50;50.80;;;;;;4917983;28;20308;-78
2023/09/21 11:36:06;;;;;;;2.58;1.20;;;;;;;;;;4915071;28;20044;-78
2023/09/21 11:38:35;;;;;;;1.98;0.93;;;;;;;;;;4927396;28;20040;-79
2023/09/21 11:41:01;;;;;;;1.10;0.95;;;;;;;;;;4927137;28;20020;-78
2023/09/21 11:43:29;;;;;;;2.20;1.10;;;25.80;50.00;;;;;;4927448;28;20040;-79
2023/09/21 11:45:55;;;;;;;1.60;0.80;;;;;;;;;;4921020;28;20036;-78
2023/09/21 11:48:22;;;;;;;1.95;1.23;;;;;;;;;;4915431;29;20028;-78
2023/09/21 11:50:48;;;;;;;3.13;1.05;;;26.30;63.10;;;;;;4962749;28;20025;-78
2023/09/21 11:53:19;;;;;;;5.90;1.47;;;;;;;;;;4935500;28;20059;-79
2023/09/21 11:55:46;;;;;;;2.33;1.58;;;;;;;;;;4920623;28;20027;-78
2023/09/21 11:58:15;;;;;;;5.43;1.92;;;26.60;63.10;;;;;;4920934;28;20040;-78
2023/09/21 12:00:45;;;;;;;1.45;0.93;;;26.40;49.10;;;;;;4920645;28;20056;-79
2023/09/21 12:03:13;;;;;;;1.92;1.00;;;;;;;;;;4916526;28;20040;-86
2023/09/21 12:05:45;;;;;;;4.47;1.58;;;;;;;;;;4926819;28;20457;-83
2023/09/21 12:08:13;;;;;;;1.17;1.02;;;28.00;46.50;;;;;;4946340;28;20058;-81
2023/09/21 12:10:40;;;;;;;4.18;1.55;;;;;;;;;;4926160;28;20366;-82
2023/09/21 12:13:07;;;;;;;1.17;1.00;;;;;;;;;;4926284;28;20029;-82
2023/09/21 12:15:34;;;;;;;2.35;0.90;;;;;;;;;;4929250;28;20115;-83
2023/09/21 12:18:01;;;;;;;1.00;0.57;;;;;;;;;;4931091;28;20027;-81
2023/09/21 12:20:27;;;;;;;1.90;0.95;;;;;;;;;;4930679;28;20028;-82
2023/09/21 12:22:53;;;;;;;2.20;0.93;;;;;;;;;;4997321;28;20043;-82
2023/09/21 12:25:20;;;;;;;1.80;1.37;;;;;;;;;;4931033;28;20070;-82
2023/09/21 12:27:47;;;;;;;;;;;;;;;;;;4931866;28;20020;-83
2023/09/21 12:30:14;;;;;;;2.65;1.00;;;;;;;;;;4930590;28;19910;-82
2023/09/21 12:32:41;;;;;;;2.58;1.27;;;;;;;;;;4930741;28;20417;-82
2023/09/21 12:35:08;;;;;;;1.52;0.90;;;25.80;50.00;;;;;;4930363;28;20062;-81
2023/09/21 12:37:34;;;;;;;1.30;0.57;;;;;;;;;;4930549;28;20520;-81
2023/09/21 12:40:00;;;;;;;1.48;0.82;;;;;;;;;;4931298;28;20031;-82
2023/09/21 12:42:27;;;;;;;1.35;0.63;;;;;;;;;;4930425;28;20032;-82
2023/09/21 12:44:53;;;;;;;4.85;1.17;;;;;;;;;;4926357;28;20043;-83
2023/09/21 12:47:19;;;;;;;2.05;0.80;;;;;;;;;;4925635;28;20550;-80
2023/09/21 12:49:45;;;;;;;1.55;0.65;;;;;;;;;;4921754;28;20040;-85
2023/09/21 12:52:14;;;;;;;2.08;1.02;;;;;;;;;;4921643;28;20039;-84
2023/09/21 12:54:41;;;;;;;1.73;1.02;;;;;;;;;;4920097;28;20122;-84
2023/09/21 12:57:07;;;;;;;1.60;0.73;;;;;;;;;;4945802;28;20026;-84
2023/09/21 12:59:35;;;;;;;3.63;0.63;;;;;;;;;;4979457;28;20395;-84
2023/09/21 13:02:01;;;;;;;2.75;1.00;;;;;;;;;;4930420;28;20028;-84
2023/09/21 13:04:27;;;;;;;1.05;0.65;;;;;;;;;;4931851;28;20042;-85
2023/09/21 13:06:53;;;;;;;2.95;0.70;;;;;;;;;;4929027;28;20027;-86
2023/09/21 13:09:19;;;;;;;1.73;0.60;;;;;;;;;;4926230;28;20051;-83
2023/09/21 13:11:45;;;;;;;5.05;0.80;;;;;;;;;;4927976;28;20623;-84
2023/09/21 13:14:11;;;;;;;4.25;0.95;;;;;;;;;;4930219;28;20039;-82
2023/09/21 13:16:37;;;;;;;1.10;0.52;;;;;;;;;;4951774;28;20463;-84
2023/09/21 13:19:03;;;;;;;1.00;0.60;;;;;;;;;;4926275;28;20051;-82
2023/09/21 13:21:29;;;;;;;4.65;1.05;;;;;;;;;;4925343;28;20396;-84
2023/09/21 13:23:55;;;;;;;0.93;0.63;;;;;;;;;;4927605;28;20095;-83
2023/09/21 13:26:21;;;;;;;3.60;1.17;;;;;;;;;;4930169;28;20103;-84
2023/09/21 13:28:47;;;;;;;0.90;0.55;;;;;;;;;;4922190;28;20384;-83
2023/09/21 13:31:14;;;;;;;2.47;0.93;;;;;;;;;;4951626;28;20021;-83
2023/09/21 13:33:40;;;;;;;3.45;1.10;;;;;;;;;;4956115;28;20114;-89
2023/09/21 13:36:07;;;;;;;1.42;0.90;;;;;;;;;;4929974;28;20098;-85
2023/09/21 13:38:33;;;;;;;1.80;0.85;;;;;;;;;;4969732;28;20035;-85
2023/09/21 13:40:59;;;;;;;2.55;0.75;;;;;;;;;;4923758;28;20043;-83
2023/09/21 13:43:25;;;;;;;1.67;0.63;;;;;;;;;;4923014;28;20044;-82
2023/09/21 13:45:52;;;;;;;2.40;0.52;;;;;;;;;;4928815;28;20090;-83
2023/09/21 13:48:19;;;;;;;0.97;0.43;;;;;;;;;;4930143;28;20401;-83
2023/09/21 13:50:45;;;;;;;;;;;25.20;53.50;;;;;;4930170;28;20089;-80
2023/09/21 13:53:11;;;;;;;2.90;0.87;;;;;;;;;;4944047;28;19915;-82
2023/09/21 13:55:38;;;;;;;3.80;1.63;;;;;;;;;;4961739;28;20511;-83
2023/09/21 13:58:04;;;;;;;6.82;1.08;;;;;;;;;;4929722;28;20032;-83
2023/09/21 14:00:31;;;;;;;5.18;1.98;;;;;;;;;;4916871;28;20028;-83
2023/09/21 14:02:58;;;;;;;2.47;0.70;;;;;;;;;;4926166;28;20032;-82
2023/09/21 14:05:24;;;;;;;1.75;0.80;;;;;;;;;;4917064;28;20099;-86
2023/09/21 14:07:50;;;;;;;1.30;0.85;;;24.10;56.40;;;;;;4924692;28;20090;-82
2023/09/21 14:10:16;;;;;;;6.60;1.52;;;;;;;;;;4925690;28;20492;-86